Time;durP1;ratioP1;P1;durP2;ratioP2;P2;SDS_P1;SDS_P2;PMS_P1;PMS_P2;Temp;Humidity;BMP_temperature;BMP_pressure;BME280_temperature;BME280_humidity;BME280_pressure;Samples;Min_cycle;Max_cycle;Signal;HPM_P1;HPM_P2
2023/09/03 00:02:21;;;;;;;;;;;20.30;67.80;;;;;;10228615;28;92703;-53
2023/09/03 00:07:23;;;;;;;;;;;20.30;67.80;;;;;;10224981;28;94718;-54
2023/09/03 00:12:25;;;;;;;;;;;20.30;67.70;;;;;;10222375;28;95523;-54
2023/09/03 00:17:27;;;;;;;;;;;20.30;67.70;;;;;;10223182;28;96842;-52
2023/09/03 00:22:29;;;;;;;;;;;20.30;67.70;;;;;;10225912;28;93460;-55
2023/09/03 00:27:31;;;;;;;;;;;20.30;67.70;;;;;;10228749;28;94771;-53
2023/09/03 00:32:33;;;;;;;;;;;20.30;67.60;;;;;;10214109;28;94414;-52
2023/09/03 00:37:34;;;;;;;;;;;20.30;67.60;;;;;;10238984;28;95305;-52
2023/09/03 00:42:37;;;;;;;;;;;20.30;67.50;;;;;;10221773;28;93543;-50
2023/09/03 00:47:38;;;;;;;;;;;20.30;67.50;;;;;;10214360;28;94484;-54
2023/09/03 00:52:40;;;;;;;;;;;20.30;67.40;;;;;;10221789;28;92666;-53
2023/09/03 00:57:42;;;;;;;;;;;20.30;67.30;;;;;;10216077;28;94338;-52
2023/09/03 01:02:44;;;;;;;;;;;20.30;67.30;;;;;;10231537;28;97564;-51
2023/09/03 01:07:47;;;;;;;;;;;20.30;67.30;;;;;;10225324;28;97597;-54
2023/09/03 01:12:59;;;;;;;;;;;20.30;67.20;;;;;;10238356;28;93407;-53
2023/09/03 01:18:08;;;;;;;;;;;20.40;67.20;;;;;;10221819;28;94684;-54
2023/09/03 01:23:18;;;;;;;;;;;20.40;67.20;;;;;;10223083;28;93605;-51
2023/09/03 01:28:22;;;;;;;;;;;20.40;67.10;;;;;;10226050;28;94014;-53
2023/09/03 01:33:26;;;;;;;;;;;20.40;67.10;;;;;;10223663;28;94156;-53
2023/09/03 01:38:27;;;;;;;;;;;20.40;67.10;;;;;;10212760;28;93565;-54
2023/09/03 01:43:29;;;;;;;;;;;20.40;67.00;;;;;;10212873;28;93654;-54
2023/09/03 01:48:43;;;;;;;;;;;20.40;67.00;;;;;;10212344;28;93072;-59
2023/09/03 01:54:05;;;;;;;;;;;20.40;66.90;;;;;;10213649;28;94693;-50
2023/09/03 01:59:14;;;;;;;;;;;20.40;66.90;;;;;;10226718;28;96849;-54
2023/09/03 02:04:17;;;;;;;;;;;20.40;67.40;;;;;;10220094;28;93389;-54
2023/09/03 02:09:19;;;;;;;;;;;20.40;67.00;;;;;;10218292;28;94546;-54
2023/09/03 02:14:20;;;;;;;;;;;20.40;66.90;;;;;;10227325;28;93304;-52
2023/09/03 02:19:22;;;;;;;;;;;20.30;66.90;;;;;;10231465;28;94425;-52
2023/09/03 02:24:24;;;;;;;;;;;20.30;67.00;;;;;;10211115;28;95488;-54
2023/09/03 02:29:26;;;;;;;;;;;20.30;67.00;;;;;;10228954;28;94385;-52
2023/09/03 02:34:28;;;;;;;;;;;20.30;67.00;;;;;;10231196;28;93710;-54
2023/09/03 02:39:30;;;;;;;;;;;20.30;67.00;;;;;;10221288;28;94472;-53
2023/09/03 02:44:31;;;;;;;;;;;20.30;67.10;;;;;;10208276;28;93853;-52
2023/09/03 02:49:34;;;;;;;;;;;20.30;67.00;;;;;;10202674;28;95945;-53
2023/09/03 02:54:35;;;;;;;;;;;20.30;67.00;;;;;;10211265;28;93452;-54
2023/09/03 02:59:37;;;;;;;;;;;20.20;67.00;;;;;;10208688;28;92897;-54
2023/09/03 03:04:39;;;;;;;;;;;20.20;66.90;;;;;;10229357;28;92742;-53
2023/09/03 03:09:41;;;;;;;;;;;20.20;66.90;;;;;;10212879;28;94686;-54
2023/09/03 03:14:42;;;;;;;;;;;20.20;66.90;;;;;;10226387;28;93480;-53
2023/09/03 03:19:47;;;;;;;;;;;20.20;66.90;;;;;;10217875;28;95572;-53
2023/09/03 03:24:49;;;;;;;;;;;20.20;66.90;;;;;;10221716;28;93728;-53
2023/09/03 03:29:54;;;;;;;;;;;20.20;66.90;;;;;;10200290;28;93491;-52
2023/09/03 03:34:55;;;;;;;;;;;20.20;66.90;;;;;;10241960;28;94383;-54
2023/09/03 03:39:57;;;;;;;;;;;20.20;66.90;;;;;;10200562;28;95874;-52
2023/09/03 03:44:59;;;;;;;;;;;20.20;66.90;;;;;;10235185;28;95478;-51
2023/09/03 03:50:00;;;;;;;;;;;20.20;66.90;;;;;;10228167;28;92492;-51
2023/09/03 03:55:02;;;;;;;;;;;20.20;66.90;;;;;;10214479;28;94487;-52
2023/09/03 04:00:04;;;;;;;;;;;20.20;67.00;;;;;;10201333;28;94551;-53
2023/09/03 04:05:06;;;;;;;;;;;20.10;66.90;;;;;;10227606;28;94325;-53
2023/09/03 04:10:08;;;;;;;;;;;20.10;66.90;;;;;;10217488;28;94129;-54
2023/09/03 04:15:10;;;;;;;;;;;20.10;66.90;;;;;;10228827;28;94071;-54
2023/09/03 04:20:12;;;;;;;;;;;20.10;66.90;;;;;;10206389;28;95242;-55
2023/09/03 04:25:13;;;;;;;;;;;20.10;66.90;;;;;;10202538;28;94266;-54
2023/09/03 04:30:15;;;;;;;;;;;20.10;66.90;;;;;;10208322;28;97266;-58
2023/09/03 04:35:17;;;;;;;;;;;20.10;66.90;;;;;;10215729;28;94164;-53
2023/09/03 04:40:19;;;;;;;;;;;20.10;67.00;;;;;;10212990;28;94120;-54
2023/09/03 04:50:48;;;;;;;;;;;20.10;66.90;;;;;;10537806;22;94343;-53
2023/09/03 04:55:50;;;;;;;;;;;20.10;66.90;;;;;;10233388;28;94288;-52
2023/09/03 05:00:51;;;;;;;;;;;20.10;66.80;;;;;;10238450;28;93552;-54
2023/09/03 05:05:53;;;;;;;;;;;20.10;66.80;;;;;;10239123;28;93940;-53
2023/09/03 05:10:55;;;;;;;;;;;20.10;66.80;;;;;;10228228;28;94646;-54
2023/09/03 05:15:56;;;;;;;;;;;20.10;66.90;;;;;;10238509;28;93526;-54
2023/09/03 05:20:58;;;;;;;;;;;20.10;66.80;;;;;;10235767;28;97415;-54
2023/09/03 05:26:00;;;;;;;;;;;20.10;66.70;;;;;;10237443;28;94559;-52
2023/09/03 05:31:02;;;;;;;;;;;20.10;66.70;;;;;;10237282;28;96366;-52
2023/09/03 05:36:04;;;;;;;;;;;20.10;66.60;;;;;;10236814;28;93560;-54
2023/09/03 05:41:06;;;;;;;;;;;20.10;66.60;;;;;;10237386;28;94438;-53
2023/09/03 05:46:08;;;;;;;;;;;20.10;66.60;;;;;;10236603;28;94225;-51
2023/09/03 05:51:09;;;;;;;;;;;20.10;66.60;;;;;;10235801;28;93499;-53
2023/09/03 05:56:12;;;;;;;;;;;20.10;66.60;;;;;;10237367;28;93001;-54
2023/09/03 06:01:14;;;;;;;;;;;20.10;66.50;;;;;;10254050;28;94814;-52
2023/09/03 06:06:16;;;;;;;;;;;20.20;66.40;;;;;;10237503;28;93604;-53
2023/09/03 06:11:17;;;;;;;;;;;20.10;66.40;;;;;;10234575;28;96410;-53
2023/09/03 06:16:19;;;;;;;;;;;20.20;66.40;;;;;;10236978;28;93744;-55
2023/09/03 06:21:21;;;;;;;;;;;20.20;66.40;;;;;;10251093;28;94490;-56
2023/09/03 06:26:22;;;;;;;;;;;20.20;66.40;;;;;;10234957;28;94462;-53
2023/09/03 06:31:24;;;;;;;;;;;20.20;66.40;;;;;;10237008;28;93730;-51
2023/09/03 06:36:26;;;;;;;;;;;20.20;66.40;;;;;;10235478;28;94686;-50
2023/09/03 06:41:28;;;;;;;;;;;20.20;66.40;;;;;;10236178;28;93407;-52
2023/09/03 06:46:29;;;;;;;;;;;20.20;66.30;;;;;;10235432;28;94054;-51
2023/09/03 06:51:35;;;;;;;;;;;20.20;66.30;;;;;;10236191;28;94062;-53
2023/09/03 06:56:36;;;;;;;;;;;20.20;66.30;;;;;;10236506;28;95404;-53
2023/09/03 07:01:38;;;;;;;;;;;20.20;66.30;;;;;;10231772;28;96831;-53
2023/09/03 07:06:40;;;;;;;;;;;20.20;66.30;;;;;;10233238;28;93495;-53
2023/09/03 07:11:42;;;;;;;;;;;20.20;66.30;;;;;;10235291;28;93670;-53
2023/09/03 07:16:44;;;;;;;;;;;20.20;66.40;;;;;;10235150;28;93335;-53
2023/09/03 07:21:46;;;;;;;;;;;20.20;66.40;;;;;;10234267;28;94556;-54
2023/09/03 07:26:48;;;;;;;;;;;20.20;66.50;;;;;;10236100;28;93505;-54
2023/09/03 07:31:50;;;;;;;;;;;20.20;66.50;;;;;;10234904;28;93288;-51
2023/09/03 07:36:52;;;;;;;;;;;20.20;66.60;;;;;;10235903;28;93039;-52
2023/09/03 07:41:56;;;;;;;;;;;20.20;66.60;;;;;;10225489;28;94558;-52
2023/09/03 07:46:58;;;;;;;;;;;20.20;66.70;;;;;;10227546;28;93493;-53
2023/09/03 07:51:59;;;;;;;;;;;20.20;66.70;;;;;;10228852;28;96355;-53
2023/09/03 07:57:01;;;;;;;;;;;20.20;66.80;;;;;;10232507;28;94829;-53
2023/09/03 08:02:03;;;;;;;;;;;20.20;67.40;;;;;;10247263;28;93483;-52
2023/09/03 08:07:05;;;;;;;;;;;20.20;66.90;;;;;;10234158;28;94482;-53
2023/09/03 08:12:07;;;;;;;;;;;20.20;67.10;;;;;;10235140;28;94521;-54
2023/09/03 08:17:09;;;;;;;;;;;20.20;67.10;;;;;;10240676;28;95631;-54
2023/09/03 08:22:10;;;;;;;;;;;20.20;67.30;;;;;;10241273;28;94972;-52
2023/09/03 08:27:12;;;;;;;;;;;20.20;67.30;;;;;;10239929;28;95042;-53
2023/09/03 08:32:14;;;;;;;;;;;20.20;67.50;;;;;;10240870;28;92544;-51
2023/09/03 08:37:16;;;;;;;;;;;20.20;67.50;;;;;;10238240;28;94686;-52
2023/09/03 08:42:18;;;;;;;;;;;20.20;68.50;;;;;;10238238;28;96826;-52
2023/09/03 08:47:19;;;;;;;;;;;20.20;67.60;;;;;;10238757;28;94597;-53
2023/09/03 08:52:21;;;;;;;;;;;20.20;67.70;;;;;;10230022;28;93482;-52
2023/09/03 08:57:26;;;;;;;;;;;20.20;67.70;;;;;;10247487;28;94461;-51
2023/09/03 09:02:28;;;;;;;;;;;20.20;67.60;;;;;;10236869;28;94577;-53
2023/09/03 09:07:29;;;;;;;;;;;20.20;67.80;;;;;;10238455;28;94710;-51
2023/09/03 09:12:32;;;;;;;;;;;20.20;67.90;;;;;;10237096;28;94503;-52
2023/09/03 09:17:40;;;;;;;;;;;20.20;67.70;;;;;;10239769;28;94076;-53
2023/09/03 09:22:46;;;;;;;;;;;20.20;67.80;;;;;;10237920;28;93389;-53
2023/09/03 09:27:48;;;;;;;;;;;20.20;67.60;;;;;;10236315;28;93584;-51
2023/09/03 09:33:01;;;;;;;;;;;20.20;67.70;;;;;;10222870;28;95756;-53
2023/09/03 09:38:06;;;;;;;;;;;20.30;67.60;;;;;;10236335;28;94923;-50
2023/09/03 09:43:08;;;;;;;;;;;20.30;67.50;;;;;;10237293;28;94504;-52
2023/09/03 09:48:10;;;;;;;;;;;20.40;67.30;;;;;;10250214;28;94433;-52
2023/09/03 09:53:20;;;;;;;;;;;20.50;67.10;;;;;;10236373;28;93675;-53
2023/09/03 09:58:22;;;;;;;;;;;20.50;66.90;;;;;;10237929;28;94057;-51
2023/09/03 10:03:39;;;;;;;;;;;20.60;66.80;;;;;;10234081;28;93540;-55
2023/09/03 10:08:45;;;;;;;;;;;20.70;66.60;;;;;;10238127;28;91825;-54
2023/09/03 10:13:52;;;;;;;;;;;20.80;66.50;;;;;;10235819;28;113771;-54
2023/09/03 10:18:54;;;;;;;;;;;20.80;66.30;;;;;;10237620;28;93604;-50
2023/09/03 10:23:58;;;;;;;;;;;20.90;66.20;;;;;;10235039;28;99586;-52
2023/09/03 10:29:01;;;;;;;;;;;20.90;66.10;;;;;;10236677;28;93734;-51
2023/09/03 10:34:08;;;;;;;;;;;21.00;66.00;;;;;;10230684;28;93745;-53
2023/09/03 10:39:22;;;;;;;;;;;21.00;65.90;;;;;;10235539;28;93526;-53
2023/09/03 10:44:30;;;;;;;;;;;21.00;65.90;;;;;;10227849;28;94170;-52
2023/09/03 10:49:39;;;;;;;;;;;21.00;65.80;;;;;;10234799;28;93439;-53
2023/09/03 10:54:41;;;;;;;;;;;21.00;65.80;;;;;;10235722;28;94804;-52
2023/09/03 11:00:04;;;;;;;;;;;21.10;65.80;;;;;;10254627;28;93636;-54
2023/09/03 11:05:13;;;;;;;;;;;21.10;65.80;;;;;;10236126;28;93542;-51
2023/09/03 11:10:21;;;;;;;;;;;21.10;65.70;;;;;;10233036;28;93988;-52
2023/09/03 11:15:23;;;;;;;;;;;21.10;65.70;;;;;;10240039;28;96094;-55
2023/09/03 11:20:28;;;;;;;;;;;21.10;65.70;;;;;;10234876;28;94341;-52
2023/09/03 11:25:49;;;;;;;;;;;21.10;65.80;;;;;;10236909;28;95542;-51
2023/09/03 11:30:57;;;;;;;;;;;21.10;65.80;;;;;;10234891;28;94555;-52
2023/09/03 11:36:00;;;;;;;;;;;21.10;65.80;;;;;;10248670;28;92711;-51
2023/09/03 11:41:02;;;;;;;;;;;21.10;65.90;;;;;;10234078;28;93566;-54
2023/09/03 11:46:11;;;;;;;;;;;21.10;65.90;;;;;;10220053;28;93948;-53
2023/09/03 11:51:22;;;;;;;;;;;21.10;66.00;;;;;;10241824;28;92854;-54
2023/09/03 11:56:30;;;;;;;;;;;21.10;66.00;;;;;;10241296;28;94581;-55
2023/09/03 12:01:33;;;;;;;;;;;21.10;66.10;;;;;;10242225;28;93730;-54
2023/09/03 12:06:35;;;;;;;;;;;21.10;66.10;;;;;;10252753;28;95871;-54
2023/09/03 12:11:37;;;;;;;;;;;21.10;66.10;;;;;;10239916;28;94541;-52
2023/09/03 12:16:45;;;;;;;;;;;21.10;66.10;;;;;;10240337;28;94386;-53
2023/09/03 12:21:51;;;;;;;;;;;21.10;66.20;;;;;;10241022;28;94478;-54
2023/09/03 12:26:59;;;;;;;;;;;21.10;66.10;;;;;;10241520;28;94363;-53
2023/09/03 12:32:01;;;;;;;;;;;21.10;66.20;;;;;;10239221;28;93515;-51
2023/09/03 12:37:03;;;;;;;;;;;21.10;66.10;;;;;;10240977;28;93408;-53
2023/09/03 12:42:06;;;;;;;;;;;21.10;66.20;;;;;;10241075;28;93727;-53
2023/09/03 12:47:09;;;;;;;;;;;21.10;66.10;;;;;;10240414;28;94556;-53
2023/09/03 12:52:11;;;;;;;;;;;21.10;66.20;;;;;;10237491;28;93752;-52
2023/09/03 12:57:13;;;;;;;;;;;21.10;66.20;;;;;;10250858;28;95994;-55
2023/09/03 13:02:17;;;;;;;;;;;21.10;66.30;;;;;;10237107;28;94590;-51
2023/09/03 13:07:19;;;;;;;;;;;21.20;66.30;;;;;;10229919;28;93502;-53
2023/09/03 13:12:20;;;;;;;;;;;21.10;66.30;;;;;;10239394;28;94456;-52
2023/09/03 13:17:22;;;;;;;;;;;21.10;66.30;;;;;;10238149;28;94576;-53
2023/09/03 13:22:23;;;;;;;;;;;21.10;66.30;;;;;;10239295;28;94503;-52
2023/09/03 13:27:25;;;;;;;;;;;21.20;66.40;;;;;;10238913;28;93281;-50
2023/09/03 13:32:27;;;;;;;;;;;21.10;66.30;;;;;;10239479;28;92243;-51
2023/09/03 13:37:28;;;;;;;;;;;21.10;66.40;;;;;;10240312;28;95385;-51
2023/09/03 13:42:30;;;;;;;;;;;21.10;66.50;;;;;;10238997;28;94789;-54
2023/09/03 13:47:32;;;;;;;;;;;21.10;66.50;;;;;;10234337;28;96223;-54
2023/09/03 13:52:35;;;;;;;;;;;21.10;66.60;;;;;;10236735;28;94774;-54
2023/09/03 13:57:37;;;;;;;;;;;21.10;66.70;;;;;;10238113;28;93477;-52
2023/09/03 14:02:38;;;;;;;;;;;21.00;66.80;;;;;;10236671;28;94810;-53
2023/09/03 14:07:40;;;;;;;;;;;21.00;66.80;;;;;;10237340;28;93978;-52
2023/09/03 14:12:43;;;;;;;;;;;21.00;67.00;;;;;;10231728;28;93740;-51
2023/09/03 14:17:45;;;;;;;;;;;21.00;67.00;;;;;;10245558;28;93252;-52
2023/09/03 14:22:47;;;;;;;;;;;21.00;67.00;;;;;;10238283;28;92933;-51
2023/09/03 14:27:49;;;;;;;;;;;21.00;67.00;;;;;;10236312;28;93531;-54
2023/09/03 14:32:50;;;;;;;;;;;20.90;67.00;;;;;;10230642;28;94553;-53
2023/09/03 14:37:52;;;;;;;;;;;20.90;67.10;;;;;;10234419;28;96873;-51
2023/09/03 14:42:54;;;;;;;;;;;21.00;67.20;;;;;;10223249;28;94490;-52
2023/09/03 14:47:55;;;;;;;;;;;20.90;67.10;;;;;;10218576;28;94097;-53
2023/09/03 14:52:57;;;;;;;;;;;20.90;67.00;;;;;;10233863;28;94623;-51
2023/09/03 14:57:59;;;;;;;;;;;20.90;66.90;;;;;;10224251;28;94499;-52
2023/09/03 15:03:00;;;;;;;;;;;20.90;68.20;;;;;;10232290;28;94553;-52
2023/09/03 15:08:03;;;;;;;;;;;21.00;66.90;;;;;;10244120;28;93674;-51
2023/09/03 15:13:04;;;;;;;;;;;21.00;66.60;;;;;;10235041;28;93170;-47
2023/09/03 15:18:08;;;;;;;;;;;21.00;66.50;;;;;;10231499;28;93306;-50
2023/09/03 15:23:10;;;;;;;;;;;21.00;66.50;;;;;;10234490;28;94598;-50
2023/09/03 15:28:12;;;;;;;;;;;21.00;66.50;;;;;;10246984;28;96457;-51
2023/09/03 15:33:14;;;;;;;;;;;21.00;66.70;;;;;;10242993;28;93278;-51
2023/09/03 15:38:17;;;;;;;;;;;21.00;67.00;;;;;;10231266;28;93464;-52
2023/09/03 15:43:20;;;;;;;;;;;21.00;67.00;;;;;;10233678;28;94656;-48
2023/09/03 15:48:23;;;;;;;;;;;21.00;67.00;;;;;;10231903;28;94062;-53
2023/09/03 15:53:25;;;;;;;;;;;21.00;67.00;;;;;;10231470;28;94426;-51
2023/09/03 15:58:27;;;;;;;;;;;21.10;67.00;;;;;;10231793;28;94471;-52
2023/09/03 16:03:29;;;;;;;;;;;21.10;67.70;;;;;;10233761;28;94180;-51
2023/09/03 16:08:30;;;;;;;;;;;21.30;70.00;;;;;;10227105;28;93037;-49
2023/09/03 16:13:32;;;;;;;;;;;21.50;70.50;;;;;;10231797;28;95011;-52
2023/09/03 16:18:34;;;;;;;;;;;21.70;70.50;;;;;;10231744;28;96464;-52
2023/09/03 16:23:35;;;;;;;;;;;21.70;69.50;;;;;;10241331;28;96121;-48
2023/09/03 16:28:37;;;;;;;;;;;21.70;69.50;;;;;;10230515;28;94426;-53
2023/09/03 16:33:39;;;;;;;;;;;21.60;69.40;;;;;;10235847;28;94370;-49
2023/09/03 16:38:43;;;;;;;;;;;21.60;69.30;;;;;;10240020;28;94269;-50
2023/09/03 16:43:45;;;;;;;;;;;21.60;69.30;;;;;;10230187;28;93503;-49
2023/09/03 16:48:46;;;;;;;;;;;21.50;69.20;;;;;;10238817;28;93410;-48
2023/09/03 16:53:48;;;;;;;;;;;21.50;69.20;;;;;;10240772;28;92878;-51
2023/09/03 16:58:50;;;;;;;;;;;21.50;69.20;;;;;;10239905;28;95047;-50
2023/09/03 17:03:55;;;;;;;;;;;21.40;69.20;;;;;;10236771;28;94420;-52
2023/09/03 17:08:56;;;;;;;;;;;21.40;69.20;;;;;;10229112;28;96946;-50
2023/09/03 17:13:58;;;;;;;;;;;21.40;69.30;;;;;;10224116;28;93435;-49
2023/09/03 17:19:00;;;;;;;;;;;21.40;69.30;;;;;;10226642;28;94524;-50
2023/09/03 17:24:02;;;;;;;;;;;21.40;69.30;;;;;;10232013;28;93739;-53
2023/09/03 17:29:06;;;;;;;;;;;21.40;69.30;;;;;;10223123;28;94576;-51
2023/09/03 17:34:08;;;;;;;;;;;21.40;69.30;;;;;;10225118;28;94443;-50
2023/09/03 17:39:10;;;;;;;;;;;21.40;69.30;;;;;;10226756;28;94623;-51
2023/09/03 17:44:14;;;;;;;;;;;21.40;70.30;;;;;;10234319;28;92957;-52
2023/09/03 17:49:15;;;;;;;;;;;21.40;69.30;;;;;;10228645;28;94424;-52
2023/09/03 17:54:17;;;;;;;;;;;21.40;69.40;;;;;;10236093;28;93884;-51
2023/09/03 17:59:19;;;;;;;;;;;21.40;69.40;;;;;;10236290;28;97362;-53
2023/09/03 18:04:20;;;;;;;;;;;21.30;69.30;;;;;;10227745;28;94564;-52
2023/09/03 18:09:22;;;;;;;;;;;21.40;69.40;;;;;;10233831;28;94061;-52
2023/09/03 18:14:24;;;;;;;;;;;21.30;69.40;;;;;;10236453;28;93777;-53
2023/09/03 18:19:26;;;;;;;;;;;21.30;69.50;;;;;;10233012;28;95036;-52
2023/09/03 18:24:27;;;;;;;;;;;21.30;69.40;;;;;;10247085;28;94366;-50
2023/09/03 18:29:29;;;;;;;;;;;21.30;69.40;;;;;;10235276;28;94426;-49
2023/09/03 18:34:31;;;;;;;;;;;21.30;69.50;;;;;;10235023;28;92997;-51
2023/09/03 18:39:33;;;;;;;;;;;21.30;69.50;;;;;;10228329;28;93849;-53
2023/09/03 18:44:34;;;;;;;;;;;21.30;69.50;;;;;;10210041;28;93911;-51
2023/09/03 18:49:36;;;;;;;;;;;21.30;69.50;;;;;;10223018;28;96773;-50
2023/09/03 18:54:37;;;;;;;;;;;21.30;69.60;;;;;;10229700;28;94549;-52
2023/09/03 18:59:39;;;;;;;;;;;21.30;69.50;;;;;;10227742;28;93606;-51
2023/09/03 19:04:44;;;;;;;;;;;21.40;69.50;;;;;;10234664;28;93422;-51
2023/09/03 19:09:48;;;;;;;;;;;21.30;69.40;;;;;;10233493;28;93333;-51
2023/09/03 19:14:50;;;;;;;;;;;21.30;69.30;;;;;;10239356;28;94420;-53
2023/09/03 19:19:52;;;;;;;;;;;21.30;69.40;;;;;;10232025;28;94086;-48
2023/09/03 19:24:54;;;;;;;;;;;21.30;69.40;;;;;;10232095;28;93660;-51
2023/09/03 19:29:56;;;;;;;;;;;21.30;69.50;;;;;;10229881;28;94834;-47
2023/09/03 19:34:58;;;;;;;;;;;21.30;69.60;;;;;;10229178;28;95005;-52
2023/09/03 19:39:59;;;;;;;;;;;21.30;69.50;;;;;;10223255;28;96887;-52
2023/09/03 19:45:01;;;;;;;;;;;21.30;70.60;;;;;;10225653;28;94596;-49
2023/09/03 19:50:04;;;;;;;;;;;21.30;69.70;;;;;;10229912;28;94527;-53
2023/09/03 19:55:05;;;;;;;;;;;21.30;69.70;;;;;;10225408;28;95255;-51
2023/09/03 20:00:09;;;;;;;;;;;21.30;69.80;;;;;;10233031;28;94691;-51
2023/09/03 20:05:12;;;;;;;;;;;21.20;69.80;;;;;;10223966;28;94066;-53
2023/09/03 20:10:14;;;;;;;;;;;21.30;69.90;;;;;;10229583;28;94444;-53
2023/09/03 20:15:16;;;;;;;;;;;21.20;69.80;;;;;;10240329;28;92785;-52
2023/09/03 20:20:22;;;;;;;;;;;21.20;69.70;;;;;;10251392;28;93955;-52
2023/09/03 20:25:24;;;;;;;;;;;21.20;69.70;;;;;;10232626;28;94548;-52
2023/09/03 20:30:25;;;;;;;;;;;21.20;69.70;;;;;;10251253;28;96427;-54
2023/09/03 20:35:27;;;;;;;;;;;21.10;70.60;;;;;;10239681;28;95926;-53
2023/09/03 20:40:30;;;;;;;;;;;21.10;69.50;;;;;;10235882;28;94524;-53
2023/09/03 20:45:32;;;;;;;;;;;21.10;69.60;;;;;;10248005;28;94669;-52
2023/09/03 20:50:37;;;;;;;;;;;21.10;69.50;;;;;;10238668;28;95040;-54
2023/09/03 20:55:39;;;;;;;;;;;21.10;69.50;;;;;;10239136;28;94706;-51
2023/09/03 21:00:41;;;;;;;;;;;21.10;69.50;;;;;;10243661;28;94760;-54
2023/09/03 21:05:50;;;;;;;;;;;21.00;69.40;;;;;;10253792;28;93432;-53
2023/09/03 21:10:55;;;;;;;;;;;21.00;69.40;;;;;;10238876;28;94401;-51
2023/09/03 21:15:57;;;;;;;;;;;21.00;69.40;;;;;;10230039;28;93484;-53
2023/09/03 21:21:03;;;;;;;;;;;21.00;69.40;;;;;;10235664;28;96799;-53
2023/09/03 21:26:10;;;;;;;;;;;21.00;69.40;;;;;;10237681;28;95547;-52
2023/09/03 21:31:16;;;;;;;;;;;20.90;69.40;;;;;;10238793;28;93607;-53
2023/09/03 21:36:18;;;;;;;;;;;20.90;69.40;;;;;;10247221;28;94546;-53
2023/09/03 21:41:20;;;;;;;;;;;20.90;69.40;;;;;;10237303;28;93230;-51
2023/09/03 21:46:21;;;;;;;;;;;20.90;69.40;;;;;;10238281;28;94223;-52
2023/09/03 21:51:23;;;;;;;;;;;20.80;69.30;;;;;;10236149;28;93093;-53
2023/09/03 21:56:25;;;;;;;;;;;20.90;69.40;;;;;;10241859;28;92573;-54
2023/09/03 22:01:27;;;;;;;;;;;20.80;69.30;;;;;;10238513;28;94503;-52
2023/09/03 22:06:29;;;;;;;;;;;20.90;69.40;;;;;;10236774;28;95069;-55
2023/09/03 22:11:30;;;;;;;;;;;20.80;69.30;;;;;;10232568;28;96846;-54
2023/09/03 22:16:33;;;;;;;;;;;20.80;69.30;;;;;;10237560;28;93890;-52
2023/09/03 22:21:35;;;;;;;;;;;20.80;69.20;;;;;;10236417;28;93989;-52
2023/09/03 22:26:36;;;;;;;;;;;20.80;69.20;;;;;;10235495;28;94759;-52
2023/09/03 22:31:38;;;;;;;;;;;20.80;69.10;;;;;;10235852;28;93933;-53
2023/09/03 22:36:40;;;;;;;;;;;20.80;69.10;;;;;;10236700;28;94374;-53
2023/09/03 22:41:42;;;;;;;;;;;20.80;69.00;;;;;;10229657;28;96060;-53
2023/09/03 22:46:44;;;;;;;;;;;20.90;69.00;;;;;;10234493;28;93997;-52
2023/09/03 22:51:46;;;;;;;;;;;20.90;69.00;;;;;;10234201;28;95379;-53
2023/09/03 22:56:47;;;;;;;;;;;20.90;68.90;;;;;;10234963;28;93500;-52
2023/09/03 23:01:49;;;;;;;;;;;20.80;68.90;;;;;;10232576;28;97281;-50
2023/09/03 23:06:51;;;;;;;;;;;20.90;68.80;;;;;;10234829;28;93386;-52
2023/09/03 23:11:52;;;;;;;;;;;20.90;68.80;;;;;;10234615;28;94536;-51
2023/09/03 23:16:54;;;;;;;;;;;20.90;68.80;;;;;;10250350;28;94432;-52
2023/09/03 23:21:56;;;;;;;;;;;20.90;68.70;;;;;;10234573;28;94525;-52
2023/09/03 23:26:58;;;;;;;;;;;20.90;68.70;;;;;;10225897;28;94612;-52
2023/09/03 23:31:59;;;;;;;;;;;20.90;68.60;;;;;;10233199;28;95049;-51
2023/09/03 23:37:04;;;;;;;;;;;20.90;68.60;;;;;;10236254;28;93759;-52
2023/09/03 23:42:06;;;;;;;;;;;20.90;68.60;;;;;;10232575;28;94451;-54
2023/09/03 23:47:07;;;;;;;;;;;20.90;68.60;;;;;;10231235;28;93441;-52
2023/09/03 23:52:15;;;;;;;;;;;20.90;68.50;;;;;;10236880;28;97105;-49
2023/09/03 23:57:17;;;;;;;;;;;20.90;68.40;;;;;;10240964;28;94692;-51
